sensor_id;sensor_type;location;lat;lon;timestamp;pressure;altitude;pressure_sealevel;temperature;humidity
46448;BME280;32145;50.390;30.778;2023-08-12T00:00:59;100069.69;;;18.20;71.70
46448;BME280;32145;50.390;30.778;2023-08-12T00:03:57;100063.41;;;18.19;71.74
46448;BME280;32145;50.390;30.778;2023-08-12T00:06:53;100069.19;;;18.18;71.45
46448;BME280;32145;50.390;30.778;2023-08-12T00:09:49;100067.81;;;18.15;71.73
46448;BME280;32145;50.390;30.778;2023-08-12T00:12:45;100059.03;;;18.13;71.46
46448;BME280;32145;50.390;30.778;2023-08-12T00:15:42;100060.41;;;18.10;71.51
46448;BME280;32145;50.390;30.778;2023-08-12T00:18:38;100059.03;;;18.08;71.41
46448;BME280;32145;50.390;30.778;2023-08-12T00:21:36;100061.78;;;18.08;71.50
46448;BME280;32145;50.390;30.778;2023-08-12T00:24:32;100058.47;;;18.06;71.61
46448;BME280;32145;50.390;30.778;2023-08-12T00:27:28;100048.06;;;18.02;71.44
46448;BME280;32145;50.390;30.778;2023-08-12T00:30:25;100044.50;;;17.97;71.42
46448;BME280;32145;50.390;30.778;2023-08-12T00:33:09;100051.38;;;17.94;71.56
46448;BME280;32145;50.390;30.778;2023-08-12T00:36:05;100044.53;;;17.91;71.55
46448;BME280;32145;50.390;30.778;2023-08-12T00:39:03;100053.59;;;17.92;71.62
46448;BME280;32145;50.390;30.778;2023-08-12T00:41:59;100049.50;;;17.89;71.42
46448;BME280;32145;50.390;30.778;2023-08-12T00:44:55;100049.75;;;17.88;71.51
46448;BME280;32145;50.390;30.778;2023-08-12T00:47:50;100044.56;;;17.86;71.46
46448;BME280;32145;50.390;30.778;2023-08-12T00:50:44;100052.78;;;17.86;71.31
46448;BME280;32145;50.390;30.778;2023-08-12T00:53:39;100053.06;;;17.85;71.40
46448;BME280;32145;50.390;30.778;2023-08-12T00:56:35;100062.66;;;17.82;71.50
46448;BME280;32145;50.390;30.778;2023-08-12T00:59:29;100047.31;;;17.81;71.44
46448;BME280;32145;50.390;30.778;2023-08-12T01:02:23;100049.50;;;17.79;71.31
46448;BME280;32145;50.390;30.778;2023-08-12T01:05:20;100061.56;;;17.78;71.36
46448;BME280;32145;50.390;30.778;2023-08-12T01:08:16;100047.03;;;17.77;71.23
46448;BME280;32145;50.390;30.778;2023-08-12T01:11:18;100055.53;;;17.76;71.33
46448;BME280;32145;50.390;30.778;2023-08-12T01:14:23;100057.19;;;17.77;71.24
46448;BME280;32145;50.390;30.778;2023-08-12T01:17:21;100056.66;;;17.75;71.15
46448;BME280;32145;50.390;30.778;2023-08-12T01:20:19;100061.03;;;17.71;71.17
46448;BME280;32145;50.390;30.778;2023-08-12T01:23:17;100063.78;;;17.71;71.15
46448;BME280;32145;50.390;30.778;2023-08-12T01:26:12;100055.00;;;17.69;71.18
46448;BME280;32145;50.390;30.778;2023-08-12T01:29:06;100055.56;;;17.65;71.01
46448;BME280;32145;50.390;30.778;2023-08-12T01:32:08;100059.38;;;17.64;71.06
46448;BME280;32145;50.390;30.778;2023-08-12T01:35:09;100053.66;;;17.61;71.05
46448;BME280;32145;50.390;30.778;2023-08-12T01:38:06;100049.56;;;17.58;71.04
46448;BME280;32145;50.390;30.778;2023-08-12T01:41:03;100046.81;;;17.58;70.94
46448;BME280;32145;50.390;30.778;2023-08-12T01:43:58;100041.31;;;17.53;70.98
46448;BME280;32145;50.390;30.778;2023-08-12T01:46:52;100041.88;;;17.50;70.98
46448;BME280;32145;50.390;30.778;2023-08-12T01:49:46;100044.06;;;17.48;70.93
46448;BME280;32145;50.390;30.778;2023-08-12T01:52:41;100039.13;;;17.45;71.14
46448;BME280;32145;50.390;30.778;2023-08-12T01:55:35;100035.88;;;17.43;71.07
46448;BME280;32145;50.390;30.778;2023-08-12T01:58:31;100033.41;;;17.41;71.24
46448;BME280;32145;50.390;30.778;2023-08-12T02:01:25;100040.25;;;17.38;71.16
46448;BME280;32145;50.390;30.778;2023-08-12T02:04:19;100033.41;;;17.36;71.13
46448;BME280;32145;50.390;30.778;2023-08-12T02:07:14;100043.00;;;17.33;71.04
46448;BME280;32145;50.390;30.778;2023-08-12T02:10:09;100056.41;;;17.30;70.93
46448;BME280;32145;50.390;30.778;2023-08-12T02:13:03;100049.56;;;17.27;70.85
46448;BME280;32145;50.390;30.778;2023-08-12T02:15:58;100056.16;;;17.26;71.00
46448;BME280;32145;50.390;30.778;2023-08-12T02:18:53;100043.28;;;17.21;71.05
46448;BME280;32145;50.390;30.778;2023-08-12T02:21:47;100049.03;;;17.20;70.89
46448;BME280;32145;50.390;30.778;2023-08-12T02:24:41;100053.13;;;17.17;70.74
46448;BME280;32145;50.390;30.778;2023-08-12T02:27:36;100057.25;;;17.15;70.80
46448;BME280;32145;50.390;30.778;2023-08-12T02:30:30;100048.47;;;17.12;70.70
46448;BME280;32145;50.390;30.778;2023-08-12T02:33:26;100052.56;;;17.10;70.82
46448;BME280;32145;50.390;30.778;2023-08-12T02:36:22;100044.09;;;17.06;70.85
46448;BME280;32145;50.390;30.778;2023-08-12T02:39:18;100052.56;;;17.05;70.74
46448;BME280;32145;50.390;30.778;2023-08-12T02:42:14;100047.34;;;17.03;70.83
46448;BME280;32145;50.390;30.778;2023-08-12T02:45:11;100056.66;;;17.02;70.80
46448;BME280;32145;50.390;30.778;2023-08-12T02:48:08;100053.34;;;17.00;70.76
46448;BME280;32145;50.390;30.778;2023-08-12T02:51:06;100051.16;;;16.97;70.78
46448;BME280;32145;50.390;30.778;2023-08-12T02:54:02;100052.81;;;16.98;70.65
46448;BME280;32145;50.390;30.778;2023-08-12T02:56:59;100043.22;;;16.95;70.57
46448;BME280;32145;50.390;30.778;2023-08-12T02:59:55;100055.00;;;16.96;70.36
46448;BME280;32145;50.390;30.778;2023-08-12T03:02:51;100055.84;;;16.96;70.56
46448;BME280;32145;50.390;30.778;2023-08-12T03:05:48;100039.69;;;16.95;70.50
46448;BME280;32145;50.390;30.778;2023-08-12T03:08:44;100045.97;;;16.95;70.31
46448;BME280;32145;50.390;30.778;2023-08-12T03:11:38;100048.41;;;16.97;70.26
46448;BME280;32145;50.390;30.778;2023-08-12T03:14:33;100045.69;;;16.97;70.43
46448;BME280;32145;50.390;30.778;2023-08-12T03:17:27;100047.09;;;16.99;70.17
46448;BME280;32145;50.390;30.778;2023-08-12T03:20:21;100045.16;;;17.00;70.30
46448;BME280;32145;50.390;30.778;2023-08-12T03:23:17;100048.44;;;17.02;70.23
46448;BME280;32145;50.390;30.778;2023-08-12T03:26:12;100049.25;;;17.03;70.10
46448;BME280;32145;50.390;30.778;2023-08-12T03:29:07;100043.78;;;17.03;70.05
46448;BME280;32145;50.390;30.778;2023-08-12T03:32:01;100040.75;;;17.04;70.09
46448;BME280;32145;50.390;30.778;2023-08-12T03:34:55;100042.44;;;17.05;69.91
46448;BME280;32145;50.390;30.778;2023-08-12T03:37:51;100048.47;;;17.07;70.00
46448;BME280;32145;50.390;30.778;2023-08-12T03:40:50;100060.53;;;17.11;69.97
46448;BME280;32145;50.390;30.778;2023-08-12T03:43:47;100062.19;;;17.18;69.92
46448;BME280;32145;50.390;30.778;2023-08-12T03:46:43;100056.97;;;17.26;69.90
46448;BME280;32145;50.390;30.778;2023-08-12T03:49:40;100055.03;;;17.43;69.66
46448;BME280;32145;50.390;30.778;2023-08-12T03:52:36;100060.47;;;17.69;69.10
46448;BME280;32145;50.390;30.778;2023-08-12T03:55:32;100056.59;;;18.01;68.45
46448;BME280;32145;50.390;30.778;2023-08-12T03:58:29;100065.81;;;18.31;67.85
46448;BME280;32145;50.390;30.778;2023-08-12T04:01:26;100062.72;;;18.48;66.81
46448;BME280;32145;50.390;30.778;2023-08-12T04:04:23;100064.03;;;18.61;66.45
46448;BME280;32145;50.390;30.778;2023-08-12T04:07:19;100064.28;;;18.65;65.85
46448;BME280;32145;50.390;30.778;2023-08-12T04:10:15;100050.19;;;18.82;65.55
46448;BME280;32145;50.390;30.778;2023-08-12T04:13:12;100051.75;;;18.93;65.19
46448;BME280;32145;50.390;30.778;2023-08-12T04:16:08;100051.84;;;18.78;65.08
46448;BME280;32145;50.390;30.778;2023-08-12T04:19:06;100056.88;;;18.65;65.36
46448;BME280;32145;50.390;30.778;2023-08-12T04:22:02;100057.19;;;18.53;65.42
46448;BME280;32145;50.390;30.778;2023-08-12T04:24:58;100051.47;;;18.50;65.59
46448;BME280;32145;50.390;30.778;2023-08-12T04:27:53;100042.69;;;18.48;65.55
46448;BME280;32145;50.390;30.778;2023-08-12T04:30:48;100043.19;;;18.55;65.55
46448;BME280;32145;50.390;30.778;2023-08-12T04:33:43;100056.63;;;18.57;65.33
46448;BME280;32145;50.390;30.778;2023-08-12T04:36:38;100052.50;;;18.64;65.48
46448;BME280;32145;50.390;30.778;2023-08-12T04:39:33;100046.41;;;18.73;65.25
46448;BME280;32145;50.390;30.778;2023-08-12T04:42:27;100054.03;;;18.76;65.13
46448;BME280;32145;50.390;30.778;2023-08-12T04:45:21;100054.00;;;18.86;64.63
46448;BME280;32145;50.390;30.778;2023-08-12T04:48:16;100051.19;;;18.97;64.58
46448;BME280;32145;50.390;30.778;2023-08-12T04:51:12;100047.81;;;19.10;64.18
46448;BME280;32145;50.390;30.778;2023-08-12T04:54:10;100058.78;;;19.10;63.83
46448;BME280;32145;50.390;30.778;2023-08-12T04:57:06;100062.59;;;19.14;63.38
46448;BME280;32145;50.390;30.778;2023-08-12T05:00:03;100063.16;;;19.16;63.49
46448;BME280;32145;50.390;30.778;2023-08-12T05:03:00;100065.84;;;19.22;63.23
46448;BME280;32145;50.390;30.778;2023-08-12T05:05:56;100060.28;;;19.32;63.24
46448;BME280;32145;50.390;30.778;2023-08-12T05:08:53;100060.66;;;19.50;63.08
46448;BME280;32145;50.390;30.778;2023-08-12T05:11:50;100060.22;;;19.67;62.85
46448;BME280;32145;50.390;30.778;2023-08-12T05:14:47;100060.94;;;19.78;62.21
46448;BME280;32145;50.390;30.778;2023-08-12T05:17:43;100057.06;;;19.79;61.74
46448;BME280;32145;50.390;30.778;2023-08-12T05:20:39;100063.03;;;19.86;61.64
46448;BME280;32145;50.390;30.778;2023-08-12T05:23:36;100059.31;;;19.77;61.31
46448;BME280;32145;50.390;30.778;2023-08-12T05:26:33;100063.75;;;19.73;61.40
46448;BME280;32145;50.390;30.778;2023-08-12T05:29:30;100063.56;;;19.64;61.37
46448;BME280;32145;50.390;30.778;2023-08-12T05:32:25;100057.41;;;19.72;61.62
46448;BME280;32145;50.390;30.778;2023-08-12T05:35:19;100055.97;;;19.80;61.61
46448;BME280;32145;50.390;30.778;2023-08-12T05:38:13;100054.28;;;19.84;61.42
46448;BME280;32145;50.390;30.778;2023-08-12T05:41:08;100061.41;;;19.85;61.50
46448;BME280;32145;50.390;30.778;2023-08-12T05:44:02;100062.53;;;19.84;61.24
46448;BME280;32145;50.390;30.778;2023-08-12T05:46:58;100064.22;;;19.80;61.34
46448;BME280;32145;50.390;30.778;2023-08-12T05:49:54;100063.75;;;19.73;61.49
46448;BME280;32145;50.390;30.778;2023-08-12T05:52:51;100065.38;;;19.74;61.71
46448;BME280;32145;50.390;30.778;2023-08-12T05:55:47;100069.81;;;19.69;61.75
46448;BME280;32145;50.390;30.778;2023-08-12T05:58:43;100062.28;;;19.51;61.97
46448;BME280;32145;50.390;30.778;2023-08-12T06:01:40;100062.94;;;19.42;62.09
46448;BME280;32145;50.390;30.778;2023-08-12T06:04:38;100064.56;;;19.43;62.48
46448;BME280;32145;50.390;30.778;2023-08-12T06:07:34;100065.66;;;19.42;62.49
46448;BME280;32145;50.390;30.778;2023-08-12T06:10:30;100071.59;;;19.25;62.75
46448;BME280;32145;50.390;30.778;2023-08-12T06:13:27;100065.06;;;19.16;62.95
46448;BME280;32145;50.390;30.778;2023-08-12T06:16:23;100054.38;;;19.14;63.17
46448;BME280;32145;50.390;30.778;2023-08-12T06:19:20;100055.44;;;19.18;63.21
46448;BME280;32145;50.390;30.778;2023-08-12T06:22:17;100061.19;;;19.22;63.11
46448;BME280;32145;50.390;30.778;2023-08-12T06:25:14;100063.38;;;19.20;63.05
46448;BME280;32145;50.390;30.778;2023-08-12T06:28:10;100061.94;;;19.28;62.97
46448;BME280;32145;50.390;30.778;2023-08-12T06:31:06;100057.03;;;19.25;62.81
46448;BME280;32145;50.390;30.778;2023-08-12T06:34:03;100064.94;;;19.31;62.97
46448;BME280;32145;50.390;30.778;2023-08-12T06:36:59;100055.50;;;19.43;62.62
46448;BME280;32145;50.390;30.778;2023-08-12T06:39:56;100057.44;;;19.42;62.50
46448;BME280;32145;50.390;30.778;2023-08-12T06:42:53;100056.00;;;19.50;62.54
46448;BME280;32145;50.390;30.778;2023-08-12T06:45:49;100056.84;;;19.75;62.38
46448;BME280;32145;50.390;30.778;2023-08-12T06:48:43;100052.63;;;19.83;61.52
46448;BME280;32145;50.390;30.778;2023-08-12T06:51:38;100046.44;;;20.21;61.37
46448;BME280;32145;50.390;30.778;2023-08-12T06:54:34;100062.50;;;20.57;60.62
46448;BME280;32145;50.390;30.778;2023-08-12T06:57:32;100055.66;;;20.93;59.71
46448;BME280;32145;50.390;30.778;2023-08-12T07:00:28;100061.94;;;21.32;59.21
46448;BME280;32145;50.390;30.778;2023-08-12T07:03:25;100056.44;;;21.46;57.99
46448;BME280;32145;50.390;30.778;2023-08-12T07:06:21;100065.56;;;21.47;58.00
46448;BME280;32145;50.390;30.778;2023-08-12T07:09:18;100055.56;;;21.51;58.15
46448;BME280;32145;50.390;30.778;2023-08-12T07:12:14;100052.63;;;21.61;58.04
46448;BME280;32145;50.390;30.778;2023-08-12T07:15:12;100065.28;;;21.62;57.79
46448;BME280;32145;50.390;30.778;2023-08-12T07:18:08;100060.97;;;21.56;57.18
46448;BME280;32145;50.390;30.778;2023-08-12T07:21:05;100060.34;;;21.45;57.37
46448;BME280;32145;50.390;30.778;2023-08-12T07:24:02;100069.13;;;21.47;57.78
46448;BME280;32145;50.390;30.778;2023-08-12T07:26:58;100073.53;;;21.48;57.33
46448;BME280;32145;50.390;30.778;2023-08-12T07:29:52;100077.31;;;21.53;57.44
46448;BME280;32145;50.390;30.778;2023-08-12T07:32:48;100081.81;;;21.62;57.80
46448;BME280;32145;50.390;30.778;2023-08-12T07:35:42;100079.66;;;21.79;57.65
46448;BME280;32145;50.390;30.778;2023-08-12T07:38:36;100083.75;;;21.81;56.79
46448;BME280;32145;50.390;30.778;2023-08-12T07:41:31;100076.19;;;22.01;56.87
46448;BME280;32145;50.390;30.778;2023-08-12T07:44:25;100071.06;;;22.22;56.19
46448;BME280;32145;50.390;30.778;2023-08-12T07:47:19;100082.50;;;22.30;55.50
46448;BME280;32145;50.390;30.778;2023-08-12T07:50:15;100087.41;;;22.33;55.28
46448;BME280;32145;50.390;30.778;2023-08-12T07:53:09;100078.72;;;22.39;55.35
46448;BME280;32145;50.390;30.778;2023-08-12T07:56:03;100067.94;;;22.52;55.19
46448;BME280;32145;50.390;30.778;2023-08-12T07:58:58;100072.66;;;22.51;55.14
46448;BME280;32145;50.390;30.778;2023-08-12T08:01:54;100077.09;;;22.38;55.02
46448;BME280;32145;50.390;30.778;2023-08-12T08:04:50;100064.00;;;22.30;55.30
46448;BME280;32145;50.390;30.778;2023-08-12T08:07:48;100067.25;;;22.46;55.24
46448;BME280;32145;50.390;30.778;2023-08-12T08:10:45;100066.13;;;22.61;54.57
46448;BME280;32145;50.390;30.778;2023-08-12T08:13:41;100066.09;;;22.75;54.42
46448;BME280;32145;50.390;30.778;2023-08-12T08:16:37;100076.53;;;22.78;54.54
46448;BME280;32145;50.390;30.778;2023-08-12T08:19:33;100066.19;;;22.84;53.36
46448;BME280;32145;50.390;30.778;2023-08-12T08:22:30;100080.22;;;22.74;52.83
46448;BME280;32145;50.390;30.778;2023-08-12T08:25:25;100081.66;;;22.71;52.00
46448;BME280;32145;50.390;30.778;2023-08-12T08:28:20;100077.59;;;22.55;52.00
46448;BME280;32145;50.390;30.778;2023-08-12T08:31:14;100085.03;;;22.54;52.40
46448;BME280;32145;50.390;30.778;2023-08-12T08:34:08;100067.88;;;22.57;52.11
46448;BME280;32145;50.390;30.778;2023-08-12T08:37:05;100079.34;;;22.50;52.21
46448;BME280;32145;50.390;30.778;2023-08-12T08:40:01;100080.44;;;22.49;52.08
46448;BME280;32145;50.390;30.778;2023-08-12T08:43:02;100082.84;;;22.56;52.48
46448;BME280;32145;50.390;30.778;2023-08-12T08:45:59;100076.13;;;22.71;52.60
46448;BME280;32145;50.390;30.778;2023-08-12T08:48:58;100082.47;;;22.72;51.92
46448;BME280;32145;50.390;30.778;2023-08-12T08:51:55;100074.53;;;22.56;52.03
46448;BME280;32145;50.390;30.778;2023-08-12T08:54:52;100078.81;;;22.48;51.99
46448;BME280;32145;50.390;30.778;2023-08-12T08:57:49;100071.84;;;22.51;52.47
46448;BME280;32145;50.390;30.778;2023-08-12T09:00:47;100073.91;;;22.59;52.41
46448;BME280;32145;50.390;30.778;2023-08-12T09:03:44;100077.97;;;22.62;52.71
46448;BME280;32145;50.390;30.778;2023-08-12T09:06:41;100082.50;;;22.58;52.60
46448;BME280;32145;50.390;30.778;2023-08-12T09:09:40;100088.00;;;22.44;52.46
46448;BME280;32145;50.390;30.778;2023-08-12T09:12:38;100078.94;;;22.43;52.92
46448;BME280;32145;50.390;30.778;2023-08-12T09:15:34;100087.09;;;22.48;52.45
46448;BME280;32145;50.390;30.778;2023-08-12T09:18:32;100097.72;;;22.55;52.65
46448;BME280;32145;50.390;30.778;2023-08-12T09:21:28;100085.34;;;22.66;52.72
46448;BME280;32145;50.390;30.778;2023-08-12T09:24:25;100086.19;;;22.67;52.79
46448;BME280;32145;50.390;30.778;2023-08-12T09:27:22;100086.66;;;22.69;52.45
46448;BME280;32145;50.390;30.778;2023-08-12T09:30:20;100086.78;;;22.64;52.36
46448;BME280;32145;50.390;30.778;2023-08-12T09:33:23;100094.88;;;22.74;52.10
46448;BME280;32145;50.390;30.778;2023-08-12T09:36:22;100097.78;;;22.92;51.97
46448;BME280;32145;50.390;30.778;2023-08-12T09:39:19;100093.13;;;23.01;51.82
46448;BME280;32145;50.390;30.778;2023-08-12T09:42:15;100088.50;;;23.11;51.03
46448;BME280;32145;50.390;30.778;2023-08-12T09:45:12;100079.97;;;23.44;51.65
46448;BME280;32145;50.390;30.778;2023-08-12T09:48:06;100078.56;;;23.55;50.34
46448;BME280;32145;50.390;30.778;2023-08-12T09:51:00;100088.72;;;23.37;50.67
46448;BME280;32145;50.390;30.778;2023-08-12T09:53:56;100100.28;;;23.25;51.00
46448;BME280;32145;50.390;30.778;2023-08-12T09:56:54;100098.41;;;23.12;51.29
46448;BME280;32145;50.390;30.778;2023-08-12T09:59:49;100098.41;;;23.12;52.00
46448;BME280;32145;50.390;30.778;2023-08-12T10:02:44;100096.22;;;23.23;51.86
46448;BME280;32145;50.390;30.778;2023-08-12T10:05:39;100098.47;;;23.35;51.46
46448;BME280;32145;50.390;30.778;2023-08-12T10:08:35;100094.91;;;23.66;51.21
46448;BME280;32145;50.390;30.778;2023-08-12T10:11:32;100094.34;;;23.87;50.45
46448;BME280;32145;50.390;30.778;2023-08-12T10:14:27;100091.97;;;24.03;50.42
46448;BME280;32145;50.390;30.778;2023-08-12T10:17:22;100092.38;;;24.19;49.86
46448;BME280;32145;50.390;30.778;2023-08-12T10:20:21;100100.72;;;24.28;49.16
46448;BME280;32145;50.390;30.778;2023-08-12T10:23:16;100096.81;;;24.29;48.71
46448;BME280;32145;50.390;30.778;2023-08-12T10:26:11;100096.97;;;24.32;48.60
46448;BME280;32145;50.390;30.778;2023-08-12T10:29:08;100109.41;;;24.44;48.37
46448;BME280;32145;50.390;30.778;2023-08-12T10:32:03;100091.44;;;24.32;46.79
46448;BME280;32145;50.390;30.778;2023-08-12T10:34:57;100100.53;;;24.24;47.02
46448;BME280;32145;50.390;30.778;2023-08-12T10:37:49;100090.59;;;24.23;46.07
46448;BME280;32145;50.390;30.778;2023-08-12T10:40:45;100095.31;;;24.14;46.63
46448;BME280;32145;50.390;30.778;2023-08-12T10:43:49;100102.00;;;24.22;45.99
46448;BME280;32145;50.390;30.778;2023-08-12T10:46:51;100102.19;;;24.25;46.86
46448;BME280;32145;50.390;30.778;2023-08-12T10:49:49;100103.97;;;24.21;46.59
46448;BME280;32145;50.390;30.778;2023-08-12T10:52:46;100102.84;;;24.22;46.38
46448;BME280;32145;50.390;30.778;2023-08-12T10:55:48;100098.75;;;24.28;46.13
46448;BME280;32145;50.390;30.778;2023-08-12T10:58:45;100103.69;;;24.40;46.26
46448;BME280;32145;50.390;30.778;2023-08-12T11:01:40;100105.66;;;24.49;45.86
46448;BME280;32145;50.390;30.778;2023-08-12T11:04:38;100104.56;;;24.58;45.86
46448;BME280;32145;50.390;30.778;2023-08-12T11:07:38;100096.56;;;24.66;45.47
46448;BME280;32145;50.390;30.778;2023-08-12T11:10:34;100098.53;;;24.65;45.96
46448;BME280;32145;50.390;30.778;2023-08-12T11:13:31;100090.88;;;24.71;45.55
46448;BME280;32145;50.390;30.778;2023-08-12T11:16:35;100095.25;;;24.72;45.02
46448;BME280;32145;50.390;30.778;2023-08-12T11:19:31;100093.47;;;24.58;44.82
46448;BME280;32145;50.390;30.778;2023-08-12T11:22:29;100110.06;;;24.50;44.81
46448;BME280;32145;50.390;30.778;2023-08-12T11:25:28;100102.06;;;24.48;44.96
46448;BME280;32145;50.390;30.778;2023-08-12T11:28:25;100101.28;;;24.56;44.31
46448;BME280;32145;50.390;30.778;2023-08-12T11:31:21;100102.09;;;24.75;43.85
46448;BME280;32145;50.390;30.778;2023-08-12T11:34:17;100109.81;;;25.22;43.93
46448;BME280;32145;50.390;30.778;2023-08-12T11:37:14;100100.00;;;25.60;42.85
46448;BME280;32145;50.390;30.778;2023-08-12T11:40:13;100102.50;;;25.92;42.62
46448;BME280;32145;50.390;30.778;2023-08-12T11:43:09;100098.81;;;26.18;41.50
46448;BME280;32145;50.390;30.778;2023-08-12T11:46:06;100099.88;;;26.34;41.07
46448;BME280;32145;50.390;30.778;2023-08-12T11:49:02;100102.88;;;26.29;40.30
46448;BME280;32145;50.390;30.778;2023-08-12T11:51:57;100089.47;;;26.22;40.08
46448;BME280;32145;50.390;30.778;2023-08-12T11:54:51;100104.16;;;26.23;40.64
46448;BME280;32145;50.390;30.778;2023-08-12T11:57:50;100095.41;;;26.12;39.89
46448;BME280;32145;50.390;30.778;2023-08-12T12:00:47;100091.88;;;25.94;39.65
46448;BME280;32145;50.390;30.778;2023-08-12T12:03:43;100087.00;;;25.82;39.61
46448;BME280;32145;50.390;30.778;2023-08-12T12:06:39;100097.63;;;25.89;39.59
46448;BME280;32145;50.390;30.778;2023-08-12T12:09:36;100090.16;;;25.80;39.15
46448;BME280;32145;50.390;30.778;2023-08-12T12:12:33;100084.13;;;25.69;39.74
46448;BME280;32145;50.390;30.778;2023-08-12T12:15:31;100078.63;;;25.60;39.87
46448;BME280;32145;50.390;30.778;2023-08-12T12:18:27;100080.72;;;25.64;40.47
46448;BME280;32145;50.390;30.778;2023-08-12T12:21:24;100077.78;;;25.69;40.60
46448;BME280;32145;50.390;30.778;2023-08-12T12:24:20;100079.09;;;25.63;40.18
46448;BME280;32145;50.390;30.778;2023-08-12T12:27:16;100089.38;;;25.44;40.54
46448;BME280;32145;50.390;30.778;2023-08-12T12:30:14;100082.88;;;25.40;40.40
46448;BME280;32145;50.390;30.778;2023-08-12T12:33:11;100088.59;;;25.35;40.58
46448;BME280;32145;50.390;30.778;2023-08-12T12:36:05;100089.56;;;25.39;40.36
46448;BME280;32145;50.390;30.778;2023-08-12T12:38:54;100086.81;;;25.30;40.08
46448;BME280;32145;50.390;30.778;2023-08-12T12:41:50;100087.47;;;25.18;40.58
46448;BME280;32145;50.390;30.778;2023-08-12T12:44:47;100090.72;;;25.20;41.26
46448;BME280;32145;50.390;30.778;2023-08-12T12:47:43;100091.72;;;25.16;41.28
46448;BME280;32145;50.390;30.778;2023-08-12T12:50:39;100096.47;;;25.15;41.41
46448;BME280;32145;50.390;30.778;2023-08-12T12:53:33;100085.03;;;24.99;41.13
46448;BME280;32145;50.390;30.778;2023-08-12T12:56:27;100080.47;;;24.86;41.88
46448;BME280;32145;50.390;30.778;2023-08-12T12:59:22;100084.19;;;24.72;42.04
46448;BME280;32145;50.390;30.778;2023-08-12T13:02:16;100085.97;;;24.68;42.24
46448;BME280;32145;50.390;30.778;2023-08-12T13:05:05;100088.59;;;24.73;42.69
46448;BME280;32145;50.390;30.778;2023-08-12T13:08:03;100087.28;;;24.79;42.68
46448;BME280;32145;50.390;30.778;2023-08-12T13:11:00;100094.34;;;24.86;43.14
46448;BME280;32145;50.390;30.778;2023-08-12T13:13:56;100096.47;;;24.89;43.13
46448;BME280;32145;50.390;30.778;2023-08-12T13:16:53;100087.94;;;24.76;44.71
46448;BME280;32145;50.390;30.778;2023-08-12T13:19:49;100088.25;;;24.66;45.50
46448;BME280;32145;50.390;30.778;2023-08-12T13:22:45;100081.75;;;24.62;45.20
46448;BME280;32145;50.390;30.778;2023-08-12T13:25:43;100084.34;;;24.67;45.47
46448;BME280;32145;50.390;30.778;2023-08-12T13:28:39;100081.41;;;24.72;45.52
46448;BME280;32145;50.390;30.778;2023-08-12T13:31:36;100080.13;;;24.78;44.70
46448;BME280;32145;50.390;30.778;2023-08-12T13:34:32;100076.06;;;24.93;44.58
46448;BME280;32145;50.390;30.778;2023-08-12T13:37:29;100077.69;;;25.12;43.47
46448;BME280;32145;50.390;30.778;2023-08-12T13:40:25;100090.09;;;25.23;42.96
46448;BME280;32145;50.390;30.778;2023-08-12T13:43:23;100084.53;;;25.32;42.02
46448;BME280;32145;50.390;30.778;2023-08-12T13:46:19;100084.66;;;25.45;41.02
46448;BME280;32145;50.390;30.778;2023-08-12T13:49:15;100076.50;;;25.57;40.76
46448;BME280;32145;50.390;30.778;2023-08-12T13:52:12;100074.81;;;25.74;40.39
46448;BME280;32145;50.390;30.778;2023-08-12T13:55:08;100070.88;;;25.75;39.84
46448;BME280;32145;50.390;30.778;2023-08-12T13:58:05;100071.59;;;25.63;40.41
46448;BME280;32145;50.390;30.778;2023-08-12T14:01:00;100081.22;;;25.48;40.62
46448;BME280;32145;50.390;30.778;2023-08-12T14:03:55;100077.34;;;25.31;40.84
46448;BME280;32145;50.390;30.778;2023-08-12T14:06:49;100079.97;;;25.19;41.26
46448;BME280;32145;50.390;30.778;2023-08-12T14:09:43;100081.94;;;25.09;41.36
46448;BME280;32145;50.390;30.778;2023-08-12T14:12:38;100079.00;;;25.15;41.62
46448;BME280;32145;50.390;30.778;2023-08-12T14:15:35;100078.66;;;25.16;41.34
46448;BME280;32145;50.390;30.778;2023-08-12T14:18:33;100087.00;;;25.07;41.98
46448;BME280;32145;50.390;30.778;2023-08-12T14:21:29;100079.16;;;25.09;41.77
46448;BME280;32145;50.390;30.778;2023-08-12T14:24:26;100079.81;;;25.06;41.95
46448;BME280;32145;50.390;30.778;2023-08-12T14:27:20;100072.97;;;25.04;41.94
46448;BME280;32145;50.390;30.778;2023-08-12T14:30:14;100071.00;;;25.04;42.38
46448;BME280;32145;50.390;30.778;2023-08-12T14:33:08;100070.53;;;25.02;42.37
46448;BME280;32145;50.390;30.778;2023-08-12T14:36:05;100064.66;;;25.04;42.34
46448;BME280;32145;50.390;30.778;2023-08-12T14:39:00;100064.78;;;25.16;42.83
46448;BME280;32145;50.390;30.778;2023-08-12T14:41:54;100052.72;;;25.12;42.26
46448;BME280;32145;50.390;30.778;2023-08-12T14:44:48;100065.31;;;25.01;42.42
46448;BME280;32145;50.390;30.778;2023-08-12T14:47:43;100059.28;;;24.90;43.07
46448;BME280;32145;50.390;30.778;2023-08-12T14:50:39;100059.75;;;24.83;42.96
46448;BME280;32145;50.390;30.778;2023-08-12T14:53:37;100059.56;;;24.79;43.42
46448;BME280;32145;50.390;30.778;2023-08-12T14:56:33;100061.03;;;24.77;42.82
46448;BME280;32145;50.390;30.778;2023-08-12T14:59:30;100063.31;;;24.75;43.35
46448;BME280;32145;50.390;30.778;2023-08-12T15:02:26;100062.34;;;24.79;43.40
46448;BME280;32145;50.390;30.778;2023-08-12T15:05:22;100064.81;;;24.90;42.84
46448;BME280;32145;50.390;30.778;2023-08-12T15:08:19;100067.25;;;25.18;42.19